createdAt,value
2019-04-06T00:01:17.154Z,80.68
2019-04-06T00:03:28.066Z,80.84
2019-04-06T00:05:39.023Z,81.00
2019-04-06T00:07:49.869Z,81.03
2019-04-06T00:10:00.844Z,80.93
2019-04-06T00:12:11.818Z,80.85
2019-04-06T00:14:22.670Z,80.75
2019-04-06T00:16:33.728Z,80.73
2019-04-06T00:18:44.632Z,80.69
2019-04-06T00:20:55.477Z,80.68
2019-04-06T00:23:06.312Z,80.54
2019-04-06T00:25:17.159Z,80.64
2019-04-06T00:27:28.122Z,80.70
2019-04-06T00:29:39.004Z,80.71
2019-04-06T00:31:51.817Z,80.67
2019-04-06T00:34:04.763Z,80.62
2019-04-06T00:36:15.615Z,80.50
2019-04-06T00:38:26.457Z,80.45
2019-04-06T00:40:37.304Z,80.38
2019-04-06T00:42:48.289Z,80.53
2019-04-06T00:44:59.098Z,80.59
2019-04-06T00:47:10.077Z,80.69
2019-04-06T00:49:20.908Z,80.74
2019-04-06T00:51:31.807Z,80.73
2019-04-06T00:53:42.599Z,80.64
2019-04-06T00:55:56.049Z,80.69
2019-04-06T00:58:06.292Z,80.78
2019-04-06T01:00:17.558Z,80.75
2019-04-06T01:02:28.435Z,80.66
2019-04-06T01:04:39.382Z,80.70
2019-04-06T01:06:50.358Z,80.80
2019-04-06T01:09:01.354Z,80.77
2019-04-06T01:11:12.424Z,81.06
2019-04-06T01:13:23.283Z,81.22
2019-04-06T01:15:34.133Z,81.34
2019-04-06T01:17:45.007Z,81.35
2019-04-06T01:19:55.887Z,81.37
2019-04-06T01:22:06.954Z,81.31
2019-04-06T01:24:17.843Z,81.01
2019-04-06T01:26:28.768Z,81.05
2019-04-06T01:28:39.577Z,81.16
2019-04-06T01:30:50.437Z,81.21
2019-04-06T01:33:01.524Z,81.40
2019-04-06T01:35:12.349Z,81.44
2019-04-06T01:37:23.229Z,81.58
2019-04-06T01:39:34.075Z,81.52
2019-04-06T01:41:45.028Z,81.65
2019-04-06T01:43:55.985Z,81.85
2019-04-06T01:46:06.941Z,82.04
2019-04-06T01:48:17.806Z,82.56
2019-04-06T01:50:28.785Z,82.98
2019-04-06T01:52:39.773Z,83.32
2019-04-06T01:54:50.729Z,83.28
2019-04-06T01:57:01.696Z,82.52
2019-04-06T01:59:12.658Z,81.52
2019-04-06T02:01:31.219Z,81.68
2019-04-06T02:03:42.085Z,81.74
2019-04-06T02:05:53.021Z,81.82
2019-04-06T02:08:03.888Z,82.20
2019-04-06T02:10:14.831Z,83.35
2019-04-06T02:12:26.241Z,83.55
2019-04-06T02:14:37.078Z,83.77
2019-04-06T02:16:48.018Z,83.66
2019-04-06T02:18:58.901Z,83.74
2019-04-06T02:21:09.749Z,83.80
2019-04-06T02:23:20.607Z,83.94
2019-04-06T02:25:31.436Z,84.09
2019-04-06T02:27:42.332Z,83.70
2019-04-06T02:30:01.134Z,83.54
2019-04-06T02:32:19.909Z,83.48
2019-04-06T02:34:32.803Z,83.57
2019-04-06T02:37:01.035Z,83.66
2019-04-06T02:39:30.425Z,83.74
2019-04-06T02:41:45.413Z,83.99
2019-04-06T02:43:56.359Z,83.93
2019-04-06T02:46:07.304Z,83.72
2019-04-06T02:48:18.233Z,83.63
2019-04-06T02:50:29.184Z,83.54
2019-04-06T02:52:40.129Z,83.47
2019-04-06T02:54:51.085Z,83.40
2019-04-06T02:57:01.928Z,83.27
2019-04-06T02:59:12.868Z,83.44
2019-04-06T03:01:23.829Z,83.40
2019-04-06T03:03:34.773Z,83.27
2019-04-06T03:05:45.738Z,82.80
2019-04-06T03:07:56.738Z,82.86
2019-04-06T03:10:08.192Z,82.97
2019-04-06T03:12:19.225Z,83.09
2019-04-06T03:14:32.075Z,83.16
2019-04-06T03:16:44.917Z,83.24
2019-04-06T03:18:55.925Z,83.21
2019-04-06T03:21:06.810Z,83.08
2019-04-06T03:23:17.763Z,82.98
2019-04-06T03:25:28.715Z,83.00
2019-04-06T03:27:39.708Z,83.20
2019-04-06T03:29:58.299Z,83.15
2019-04-06T03:32:05.498Z,83.27
2019-04-06T03:34:20.645Z,82.98
2019-04-06T03:36:29.179Z,82.72
2019-04-06T03:38:40.016Z,82.70
2019-04-06T03:40:50.962Z,82.37
2019-04-06T03:43:01.805Z,81.76
2019-04-06T03:45:12.854Z,81.96
2019-04-06T03:47:23.864Z,82.00
2019-04-06T03:49:34.795Z,81.89
2019-04-06T03:51:45.643Z,81.83
2019-04-06T03:53:56.489Z,81.74
2019-04-06T03:56:07.619Z,81.55
2019-04-06T03:58:18.475Z,81.43
2019-04-06T04:00:29.421Z,81.21
2019-04-06T04:02:40.477Z,81.16
2019-04-06T04:04:51.448Z,81.28
2019-04-06T04:07:02.413Z,81.11
2019-04-06T04:09:13.355Z,81.19
2019-04-06T04:11:24.239Z,81.25
2019-04-06T04:13:35.541Z,81.33
2019-04-06T04:15:46.696Z,81.60
2019-04-06T04:17:57.679Z,81.88
2019-04-06T04:20:08.733Z,81.88
2019-04-06T04:22:19.616Z,81.65
2019-04-06T04:24:30.741Z,81.72
2019-04-06T04:26:41.594Z,82.18
2019-04-06T04:28:52.565Z,83.68
2019-04-06T04:31:03.514Z,84.22
2019-04-06T04:33:14.347Z,84.53
2019-04-06T04:35:25.211Z,84.52
2019-04-06T04:37:36.086Z,84.50
2019-04-06T04:39:46.956Z,84.52
2019-04-06T04:41:57.872Z,84.57
2019-04-06T04:44:08.729Z,84.57
2019-04-06T04:46:19.802Z,84.48
2019-04-06T04:48:30.649Z,84.43
2019-04-06T04:50:41.492Z,84.42
2019-04-06T04:52:52.333Z,84.38
2019-04-06T04:55:05.095Z,84.20
2019-04-06T04:57:16.042Z,83.94
2019-04-06T04:59:26.922Z,83.44
2019-04-06T05:01:37.923Z,83.47
2019-04-06T05:03:48.871Z,83.78
2019-04-06T05:05:59.807Z,83.61
2019-04-06T05:08:10.781Z,83.55
2019-04-06T05:10:21.639Z,83.33
2019-04-06T05:12:32.493Z,83.24
2019-04-06T05:14:57.346Z,83.12
2019-04-06T05:17:08.247Z,83.03
2019-04-06T05:19:19.159Z,82.72
2019-04-06T05:21:30.043Z,82.76
2019-04-06T05:23:40.902Z,83.07
2019-04-06T05:25:51.748Z,83.22
2019-04-06T05:28:02.833Z,83.22
2019-04-06T05:30:15.828Z,83.30
2019-04-06T05:32:26.761Z,83.54
2019-04-06T05:34:37.602Z,83.51
2019-04-06T05:36:48.462Z,83.44
2019-04-06T05:38:59.293Z,83.44
2019-04-06T05:41:10.164Z,83.44
2019-04-06T05:43:21.073Z,83.52
2019-04-06T05:45:32.073Z,83.99
2019-04-06T05:47:42.911Z,84.07
2019-04-06T05:49:55.669Z,84.24
2019-04-06T05:52:06.537Z,84.18
2019-04-06T05:54:17.474Z,84.08
2019-04-06T05:56:28.431Z,83.92
2019-04-06T05:58:40.658Z,83.74
2019-04-06T06:00:52.055Z,83.29
2019-04-06T06:03:03.032Z,83.15
2019-04-06T06:05:14.108Z,83.23
2019-04-06T06:07:24.944Z,83.21
2019-04-06T06:09:35.806Z,83.24
2019-04-06T06:11:46.659Z,83.34
2019-04-06T06:13:57.499Z,83.57
2019-04-06T06:16:08.375Z,83.69
2019-04-06T06:18:26.453Z,83.82
2019-04-06T06:20:33.959Z,83.84
2019-04-06T06:22:44.850Z,83.63
2019-04-06T06:24:55.692Z,83.42
2019-04-06T06:27:06.583Z,83.24
2019-04-06T06:29:17.505Z,83.23
2019-04-06T06:31:28.399Z,83.03
2019-04-06T06:33:39.298Z,82.88
2019-04-06T06:35:50.137Z,82.62
2019-04-06T06:38:01.072Z,82.27
2019-04-06T06:40:13.960Z,82.01
2019-04-06T06:42:24.892Z,81.85
2019-04-06T06:44:35.699Z,81.68
2019-04-06T06:46:46.668Z,81.75
2019-04-06T06:48:57.811Z,81.67
2019-04-06T06:51:08.703Z,81.63
2019-04-06T06:53:19.651Z,81.42
2019-04-06T06:55:30.517Z,81.17
2019-04-06T06:57:41.385Z,81.20
2019-04-06T06:59:52.220Z,81.47
2019-04-06T07:02:03.176Z,81.05
2019-04-06T07:04:14.019Z,80.33
2019-04-06T07:06:24.854Z,80.41
2019-04-06T07:08:35.852Z,81.93
2019-04-06T07:10:46.656Z,80.65
2019-04-06T07:12:57.531Z,78.53
2019-04-06T07:15:08.591Z,78.53
2019-04-06T07:17:19.480Z,77.82
2019-04-06T07:19:30.480Z,77.56
2019-04-06T07:21:41.442Z,77.61
2019-04-06T07:23:52.319Z,77.89
2019-04-06T07:26:03.401Z,78.19
2019-04-06T07:28:14.239Z,77.97
2019-04-06T07:30:25.253Z,78.06
2019-04-06T07:32:36.216Z,77.79
2019-04-06T07:34:47.082Z,77.48
2019-04-06T07:36:57.928Z,77.19
2019-04-06T07:39:08.900Z,77.09
2019-04-06T07:41:19.772Z,77.13
2019-04-06T07:43:30.620Z,76.87
2019-04-06T07:45:41.613Z,77.05
2019-04-06T07:47:52.485Z,77.09
2019-04-06T07:50:05.182Z,77.15
2019-04-06T07:52:16.028Z,76.90
2019-04-06T07:54:27.027Z,76.76
2019-04-06T07:56:37.895Z,77.03
2019-04-06T07:58:50.045Z,76.88
2019-04-06T08:01:01.176Z,76.71
2019-04-06T08:03:12.117Z,76.29
2019-04-06T08:05:23.066Z,75.76
2019-04-06T08:07:34.027Z,75.46
2019-04-06T08:09:44.994Z,74.84
2019-04-06T08:11:55.847Z,74.83
2019-04-06T08:14:06.686Z,74.40
2019-04-06T08:16:17.556Z,73.77
2019-04-06T08:18:30.316Z,73.77
2019-04-06T08:20:41.361Z,73.55
2019-04-06T08:22:52.334Z,73.52
2019-04-06T08:25:04.584Z,73.48
2019-04-06T08:27:15.473Z,73.53
2019-04-06T08:29:26.486Z,73.25
2019-04-06T08:31:37.464Z,73.24
2019-04-06T08:33:48.397Z,73.27
2019-04-06T08:35:59.605Z,73.20
2019-04-06T08:38:10.547Z,73.08
2019-04-06T08:40:21.519Z,73.29
2019-04-06T08:42:34.284Z,73.29
2019-04-06T08:44:45.143Z,72.93
2019-04-06T08:46:56.103Z,72.65
2019-04-06T08:49:06.953Z,72.72
2019-04-06T08:51:18.807Z,72.28
2019-04-06T08:53:29.650Z,71.99
2019-04-06T08:55:40.519Z,71.79
2019-04-06T08:57:51.391Z,71.40
2019-04-06T09:00:05.037Z,69.92
2019-04-06T09:02:15.949Z,70.51
2019-04-06T09:04:26.810Z,71.62
2019-04-06T09:06:37.659Z,72.09
2019-04-06T09:08:48.520Z,70.41
2019-04-06T09:10:59.407Z,67.84
2019-04-06T09:13:10.248Z,67.74
2019-04-06T09:15:21.079Z,66.32
2019-04-06T09:17:31.940Z,65.67
2019-04-06T09:19:42.801Z,65.40
2019-04-06T09:21:53.769Z,64.47
2019-04-06T09:24:04.937Z,63.29
2019-04-06T09:26:15.807Z,63.91
2019-04-06T09:28:26.797Z,63.53
2019-04-06T09:30:37.710Z,62.18
2019-04-06T09:32:48.577Z,61.86
2019-04-06T09:34:59.433Z,61.40
2019-04-06T09:37:10.394Z,61.83
2019-04-06T09:39:21.300Z,61.53
2019-04-06T09:41:32.148Z,61.39
2019-04-06T09:43:43.010Z,61.33
2019-04-06T09:46:10.749Z,61.07
2019-04-06T09:48:23.653Z,61.25
2019-04-06T09:50:36.708Z,61.25
2019-04-06T09:52:49.547Z,60.52
2019-04-06T09:55:17.386Z,60.90
2019-04-06T09:57:30.315Z,60.34
2019-04-06T09:59:55.274Z,59.84
2019-04-06T10:02:08.291Z,58.30
2019-04-06T10:04:21.180Z,59.50
2019-04-06T10:06:33.930Z,59.03
2019-04-06T10:09:02.012Z,57.73
2019-04-06T10:11:26.968Z,56.73
2019-04-06T10:13:57.837Z,56.87
2019-04-06T10:16:25.834Z,57.86
2019-04-06T10:18:47.606Z,55.68
2019-04-06T10:21:03.281Z,54.90
2019-04-06T10:23:28.073Z,54.92
2019-04-06T10:25:57.198Z,55.62
2019-04-06T10:28:28.020Z,52.19
2019-04-06T10:30:56.128Z,53.83
2019-04-06T10:33:08.893Z,52.27
2019-04-06T10:35:38.730Z,53.42
2019-04-06T10:38:06.531Z,53.93
2019-04-06T10:40:22.296Z,54.65
2019-04-06T10:42:44.231Z,54.60
2019-04-06T10:45:02.857Z,56.09
2019-04-06T10:47:30.990Z,56.22
2019-04-06T10:49:49.604Z,57.65
2019-04-06T10:52:02.496Z,56.01
2019-04-06T10:54:24.352Z,57.70
2019-04-06T10:56:40.120Z,56.62
2019-04-06T10:58:52.910Z,56.83
2019-04-06T11:01:05.800Z,56.09
2019-04-06T11:03:35.080Z,57.07
2019-04-06T11:06:00.240Z,57.18
2019-04-06T11:08:13.326Z,57.90
2019-04-06T11:10:32.321Z,57.54
2019-04-06T11:12:54.313Z,56.42
2019-04-06T11:15:19.366Z,56.76
2019-04-06T11:17:44.233Z,55.76
2019-04-06T11:20:02.692Z,55.31
2019-04-06T11:22:18.300Z,56.28
2019-04-06T11:24:37.088Z,55.81
2019-04-06T11:27:04.959Z,55.91
2019-04-06T11:29:17.869Z,56.10
2019-04-06T11:31:36.424Z,55.41
2019-04-06T11:34:05.775Z,55.66
2019-04-06T11:36:18.651Z,56.05
2019-04-06T11:38:31.519Z,56.76
2019-04-06T11:40:47.653Z,57.53
2019-04-06T11:43:00.773Z,56.07
2019-04-06T11:45:29.113Z,55.96
2019-04-06T11:47:51.183Z,55.75
2019-04-06T11:50:22.931Z,55.39
2019-04-06T11:52:52.305Z,54.49
2019-04-06T11:55:14.421Z,54.24
2019-04-06T11:57:39.507Z,55.11
2019-04-06T11:59:58.576Z,54.82
2019-04-06T12:02:11.500Z,53.04
2019-04-06T12:04:41.547Z,54.38
2019-04-06T12:06:54.402Z,53.68
2019-04-06T12:09:10.322Z,54.73
2019-04-06T12:11:38.577Z,55.42
2019-04-06T12:14:03.559Z,55.54
2019-04-06T12:16:34.682Z,55.54
2019-04-06T12:19:06.107Z,55.37
2019-04-06T12:21:34.383Z,54.97
2019-04-06T12:24:04.073Z,55.55
2019-04-06T12:26:23.006Z,54.76
2019-04-06T12:28:35.760Z,56.24
2019-04-06T12:30:51.547Z,56.68
2019-04-06T12:33:13.826Z,54.95
2019-04-06T12:35:32.705Z,55.00
2019-04-06T12:38:00.747Z,54.40
2019-04-06T12:40:13.728Z,54.63
2019-04-06T12:42:26.591Z,53.80
2019-04-06T12:44:42.008Z,54.60
2019-04-06T12:47:03.574Z,54.15
2019-04-06T12:49:16.633Z,55.51
2019-04-06T12:51:44.577Z,54.34
2019-04-06T12:54:14.005Z,54.71
2019-04-06T12:56:38.690Z,54.52
2019-04-06T12:59:07.813Z,54.26
2019-04-06T13:01:20.581Z,53.27
2019-04-06T13:03:50.142Z,53.73
2019-04-06T13:06:03.484Z,53.36
2019-04-06T13:08:16.245Z,52.86
2019-04-06T13:10:35.169Z,55.62
2019-04-06T13:12:57.283Z,52.42
2019-04-06T13:15:10.769Z,52.85
2019-04-06T13:17:38.484Z,51.95
2019-04-06T13:20:08.165Z,51.36
2019-04-06T13:22:39.549Z,51.66
2019-04-06T13:24:55.605Z,51.66
2019-04-06T13:27:17.779Z,52.32
2019-04-06T13:29:33.272Z,51.63
2019-04-06T13:31:52.217Z,52.18
2019-04-06T13:34:10.915Z,52.51
2019-04-06T13:36:26.433Z,52.39
2019-04-06T13:38:39.212Z,51.76
2019-04-06T13:40:55.477Z,52.04
2019-04-06T13:43:25.326Z,53.07
2019-04-06T13:45:44.030Z,51.80
2019-04-06T13:48:16.934Z,52.89
2019-04-06T13:50:46.557Z,51.15
2019-04-06T13:53:01.484Z,50.06
2019-04-06T13:55:29.090Z,50.64
2019-04-06T13:57:41.866Z,51.16
2019-04-06T14:00:09.942Z,51.61
2019-04-06T14:02:37.911Z,51.19
2019-04-06T14:05:05.981Z,50.41
2019-04-06T14:07:25.059Z,50.40
2019-04-06T14:09:37.953Z,50.10
2019-04-06T14:11:53.469Z,50.84
2019-04-06T14:14:06.382Z,50.58
2019-04-06T14:16:25.427Z,50.82
2019-04-06T14:18:57.666Z,51.26
2019-04-06T14:21:12.874Z,51.34
2019-04-06T14:23:25.830Z,50.84
2019-04-06T14:25:44.619Z,50.40
2019-04-06T14:27:57.383Z,51.75
2019-04-06T14:30:20.241Z,51.17
2019-04-06T14:32:35.753Z,51.32
2019-04-06T14:34:48.552Z,50.42
2019-04-06T14:37:19.866Z,50.88
2019-04-06T14:39:32.662Z,51.39
2019-04-06T14:41:48.627Z,52.48
2019-04-06T14:44:01.415Z,50.96
2019-04-06T14:46:17.427Z,51.41
2019-04-06T14:48:30.242Z,50.69
2019-04-06T14:50:45.750Z,51.54
2019-04-06T14:53:16.649Z,51.76
2019-04-06T14:55:48.084Z,50.25
2019-04-06T14:58:01.175Z,51.10
2019-04-06T15:00:14.576Z,50.67
2019-04-06T15:02:42.732Z,50.87
2019-04-06T15:04:58.182Z,50.91
2019-04-06T15:07:12.758Z,51.59
2019-04-06T15:09:45.388Z,51.25
2019-04-06T15:12:06.964Z,51.27
2019-04-06T15:14:19.764Z,50.90
2019-04-06T15:16:49.243Z,50.49
2019-04-06T15:19:18.742Z,50.16
2019-04-06T15:21:31.559Z,51.05
2019-04-06T15:23:53.355Z,50.48
2019-04-06T15:26:06.280Z,50.12
2019-04-06T15:28:28.788Z,51.00
2019-04-06T15:30:50.619Z,50.49
2019-04-06T15:33:09.340Z,50.29
2019-04-06T15:35:27.996Z,49.96
2019-04-06T15:37:43.761Z,49.98
2019-04-06T15:40:05.713Z,49.91
2019-04-06T15:42:33.544Z,50.61
2019-04-06T15:44:52.111Z,50.22
2019-04-06T15:47:04.964Z,50.06
2019-04-06T15:49:24.410Z,49.62
2019-04-06T15:51:37.174Z,49.96
2019-04-06T15:54:01.179Z,49.50
2019-04-06T15:56:13.797Z,49.88
2019-04-06T15:58:38.581Z,50.19
2019-04-06T16:00:57.557Z,49.71
2019-04-06T16:03:28.857Z,49.94
2019-04-06T16:05:44.604Z,50.00
2019-04-06T16:08:09.265Z,48.74
2019-04-06T16:10:25.112Z,49.69
2019-04-06T16:12:37.886Z,48.81
2019-04-06T16:15:07.043Z,48.86
2019-04-06T16:17:31.816Z,49.24
2019-04-06T16:19:56.924Z,49.88
2019-04-06T16:22:18.823Z,50.27
2019-04-06T16:24:37.584Z,49.94
2019-04-06T16:26:55.251Z,48.81
2019-04-06T16:29:13.264Z,49.41
2019-04-06T16:31:26.171Z,48.20
2019-04-06T16:33:38.958Z,48.44
2019-04-06T16:35:53.793Z,49.03
2019-04-06T16:38:22.566Z,48.60
2019-04-06T16:40:47.863Z,48.50
2019-04-06T16:43:09.702Z,47.95
2019-04-06T16:45:39.241Z,47.55
2019-04-06T16:47:54.728Z,48.26
2019-04-06T16:50:16.641Z,48.87
2019-04-06T16:52:46.038Z,49.35
2019-04-06T16:55:01.526Z,49.28
2019-04-06T16:57:29.657Z,49.44
2019-04-06T16:59:59.304Z,49.89
2019-04-06T17:02:22.212Z,50.05
2019-04-06T17:04:29.538Z,49.95
2019-04-06T17:06:59.267Z,49.41
2019-04-06T17:09:14.730Z,49.37
2019-04-06T17:11:27.948Z,49.40
2019-04-06T17:13:43.396Z,49.53
2019-04-06T17:16:01.996Z,49.86
2019-04-06T17:18:26.892Z,50.12
2019-04-06T17:20:39.700Z,50.36
2019-04-06T17:22:52.693Z,50.57
2019-04-06T17:25:12.277Z,50.62
2019-04-06T17:27:25.043Z,50.45
2019-04-06T17:29:55.304Z,50.60
2019-04-06T17:32:13.964Z,50.83
2019-04-06T17:34:28.642Z,51.21
2019-04-06T17:36:50.731Z,51.74
2019-04-06T17:39:13.151Z,52.27
2019-04-06T17:41:29.251Z,53.09
2019-04-06T17:43:57.575Z,54.13
2019-04-06T17:46:13.087Z,55.85
2019-04-06T17:48:28.697Z,56.57
2019-04-06T17:50:41.459Z,57.20
2019-04-06T17:53:03.043Z,57.53
2019-04-06T17:55:24.868Z,57.81
2019-04-06T17:57:37.921Z,58.12
2019-04-06T18:00:06.240Z,58.43
2019-04-06T18:02:25.197Z,58.75
2019-04-06T18:04:41.402Z,59.14
2019-04-06T18:07:11.004Z,59.48
2019-04-06T18:09:36.334Z,60.02
2019-04-06T18:11:52.018Z,60.51
2019-04-06T18:14:03.095Z,61.04
2019-04-06T18:16:14.127Z,61.46
2019-04-06T18:18:24.991Z,61.88
2019-04-06T18:20:35.935Z,61.93
2019-04-06T18:22:46.821Z,62.22
2019-04-06T18:24:57.983Z,62.21
2019-04-06T18:27:08.918Z,62.31
2019-04-06T18:29:19.867Z,62.68
2019-04-06T18:31:44.661Z,62.75
2019-04-06T18:33:55.810Z,63.00
2019-04-06T18:36:06.611Z,63.39
2019-04-06T18:38:19.913Z,63.62
2019-04-06T18:40:30.756Z,63.61
2019-04-06T18:42:41.782Z,63.70
2019-04-06T18:44:53.068Z,63.84
2019-04-06T18:47:04.088Z,63.82
2019-04-06T18:49:15.065Z,63.94
2019-04-06T18:51:25.949Z,64.26
2019-04-06T18:53:37.065Z,64.63
2019-04-06T18:55:48.215Z,64.87
2019-04-06T18:58:08.705Z,65.60
2019-04-06T19:00:13.369Z,65.84
2019-04-06T19:02:24.540Z,66.00
2019-04-06T19:04:35.396Z,66.32
2019-04-06T19:06:46.644Z,66.35
2019-04-06T19:08:57.618Z,66.70
2019-04-06T19:11:08.690Z,66.70
2019-04-06T19:13:19.617Z,66.88
2019-04-06T19:15:30.564Z,67.05
2019-04-06T19:17:41.409Z,67.60
2019-04-06T19:19:52.355Z,68.05
2019-04-06T19:22:03.706Z,68.23
2019-04-06T19:24:14.721Z,68.20
2019-04-06T19:26:25.737Z,68.45
2019-04-06T19:28:36.689Z,69.04
2019-04-06T19:30:47.685Z,69.28
2019-04-06T19:32:59.160Z,69.22
2019-04-06T19:35:12.171Z,69.24
2019-04-06T19:37:23.049Z,69.69
2019-04-06T19:39:34.477Z,69.81
2019-04-06T19:41:46.095Z,70.08
2019-04-06T19:43:57.027Z,70.11
2019-04-06T19:46:08.007Z,69.90
2019-04-06T19:48:18.976Z,69.98
2019-04-06T19:50:30.443Z,69.96
2019-04-06T19:52:41.590Z,69.96
2019-04-06T19:54:52.573Z,70.62
2019-04-06T19:57:03.545Z,70.55
2019-04-06T19:59:14.415Z,70.90
2019-04-06T20:01:25.402Z,71.13
2019-04-06T20:03:38.545Z,71.31
2019-04-06T20:05:49.163Z,71.44
2019-04-06T20:08:00.446Z,71.58
2019-04-06T20:10:11.727Z,71.52
2019-04-06T20:12:22.795Z,71.47
2019-04-06T20:14:33.772Z,71.58
2019-04-06T20:16:44.615Z,71.78
2019-04-06T20:18:55.536Z,71.84
2019-04-06T20:21:06.511Z,72.01
2019-04-06T20:23:19.358Z,72.06
2019-04-06T20:25:30.643Z,72.33
2019-04-06T20:27:42.029Z,72.86
2019-04-06T20:29:55.138Z,73.34
2019-04-06T20:32:06.732Z,73.31
2019-04-06T20:34:17.686Z,73.39
2019-04-06T20:36:28.840Z,73.36
2019-04-06T20:38:40.625Z,73.35
2019-04-06T20:40:51.601Z,73.53
2019-04-06T20:43:02.858Z,73.61
2019-04-06T20:45:13.981Z,73.66
2019-04-06T20:47:24.971Z,73.77
2019-04-06T20:49:36.254Z,73.62
2019-04-06T20:51:47.174Z,73.84
2019-04-06T20:53:57.986Z,73.91
2019-04-06T20:56:08.935Z,74.27
2019-04-06T20:58:20.391Z,74.26
2019-04-06T21:00:31.378Z,74.18
2019-04-06T21:02:42.229Z,74.05
2019-04-06T21:04:53.100Z,74.27
2019-04-06T21:07:04.401Z,74.34
2019-04-06T21:09:15.472Z,74.39
2019-04-06T21:11:26.336Z,74.61
2019-04-06T21:13:37.203Z,74.93
2019-04-06T21:15:48.094Z,75.28
2019-04-06T21:17:59.095Z,75.39
2019-04-06T21:20:10.698Z,75.29
2019-04-06T21:22:21.639Z,75.40
2019-04-06T21:24:32.873Z,75.51
2019-04-06T21:26:44.258Z,75.64
2019-04-06T21:28:55.397Z,75.67
2019-04-06T21:31:06.345Z,75.88
2019-04-06T21:33:17.209Z,75.94
2019-04-06T21:35:28.164Z,75.97
2019-04-06T21:37:39.021Z,76.14
2019-04-06T21:39:49.982Z,76.34
2019-04-06T21:42:00.951Z,76.68
2019-04-06T21:44:12.188Z,76.66
2019-04-06T21:46:23.578Z,76.82
2019-04-06T21:48:35.148Z,76.60
2019-04-06T21:50:46.447Z,76.53
2019-04-06T21:52:57.660Z,76.43
2019-04-06T21:55:11.184Z,76.33
2019-04-06T21:57:22.139Z,76.41
2019-04-06T21:59:33.876Z,76.36
2019-04-06T22:01:45.084Z,76.21
2019-04-06T22:03:56.034Z,76.10
2019-04-06T22:06:06.983Z,76.10
2019-04-06T22:08:17.852Z,76.01
2019-04-06T22:10:28.786Z,76.01
2019-04-06T22:12:39.993Z,76.26
2019-04-06T22:14:51.598Z,76.45
2019-04-06T22:17:05.262Z,76.68
2019-04-06T22:19:16.108Z,76.99
2019-04-06T22:21:27.183Z,77.21
2019-04-06T22:23:42.247Z,77.42
2019-04-06T22:25:51.395Z,77.35
2019-04-06T22:28:02.806Z,77.47
2019-04-06T22:30:14.898Z,77.47
2019-04-06T22:32:25.859Z,77.39
2019-04-06T22:34:40.216Z,77.36
2019-04-06T22:36:49.578Z,77.25
2019-04-06T22:39:00.710Z,77.39
2019-04-06T22:41:11.851Z,77.39
2019-04-06T22:43:22.767Z,77.42
2019-04-06T22:45:34.707Z,77.37
2019-04-06T22:47:45.557Z,77.29
2019-04-06T22:49:56.506Z,77.26
2019-04-06T22:52:07.886Z,77.18
2019-04-06T22:54:18.866Z,77.54
2019-04-06T22:56:29.797Z,77.95
2019-04-06T22:58:41.240Z,78.22
2019-04-06T23:00:56.915Z,78.59
2019-04-06T23:03:13.098Z,78.98
2019-04-06T23:05:29.497Z,79.19
2019-04-06T23:07:40.392Z,79.09
2019-04-06T23:09:52.017Z,79.23
2019-04-06T23:12:03.209Z,79.42
2019-04-06T23:14:14.271Z,79.38
2019-04-06T23:16:25.109Z,79.43
2019-04-06T23:18:35.977Z,79.34
2019-04-06T23:20:47.321Z,79.50
2019-04-06T23:22:58.223Z,79.20
2019-04-06T23:25:09.482Z,78.99
2019-04-06T23:27:22.702Z,78.89
2019-04-06T23:29:33.749Z,78.85
2019-04-06T23:31:45.194Z,78.79
2019-04-06T23:33:56.095Z,78.68
2019-04-06T23:36:06.934Z,78.87
2019-04-06T23:38:17.866Z,79.02
2019-04-06T23:40:29.426Z,79.23
2019-04-06T23:42:40.486Z,79.74
2019-04-06T23:44:51.628Z,79.73
2019-04-06T23:47:03.228Z,79.36
2019-04-06T23:49:14.141Z,78.42
2019-04-06T23:51:25.673Z,78.43
2019-04-06T23:53:37.248Z,78.56
2019-04-06T23:55:48.198Z,78.55
2019-04-06T23:57:59.120Z,78.43
